createdAt,value
2018-11-03T00:01:36.392Z,9.00
2018-11-03T00:04:04.877Z,9.00
2018-11-03T00:06:33.299Z,9.00
2018-11-03T00:09:01.717Z,9.00
2018-11-03T00:11:30.121Z,8.90
2018-11-03T00:13:58.603Z,9.00
2018-11-03T00:16:26.996Z,9.00
2018-11-03T00:18:55.408Z,9.00
2018-11-03T00:21:23.853Z,9.00
2018-11-03T00:23:52.369Z,8.90
2018-11-03T00:26:20.779Z,9.00
2018-11-03T00:28:49.204Z,8.90
2018-11-03T00:31:17.590Z,8.90
2018-11-03T00:33:45.989Z,8.90
2018-11-03T00:36:14.385Z,8.90
2018-11-03T00:38:42.791Z,8.80
2018-11-03T00:41:11.205Z,8.80
2018-11-03T00:43:39.591Z,8.80
2018-11-03T00:46:08.375Z,8.90
2018-11-03T00:48:36.816Z,8.80
2018-11-03T00:51:05.273Z,8.80
2018-11-03T00:53:33.767Z,8.90
2018-11-03T00:56:02.212Z,8.80
2018-11-03T00:58:30.673Z,8.70
2018-11-03T01:00:59.119Z,8.70
2018-11-03T01:03:27.528Z,8.70
2018-11-03T01:05:55.981Z,8.70
2018-11-03T01:08:24.412Z,8.60
2018-11-03T01:10:52.853Z,8.50
2018-11-03T01:13:21.268Z,8.50
2018-11-03T01:15:49.696Z,8.40
2018-11-03T01:18:18.109Z,8.40
2018-11-03T01:20:46.536Z,8.30
2018-11-03T01:23:15.036Z,8.40
2018-11-03T01:25:43.489Z,8.30
2018-11-03T01:28:11.899Z,8.30
2018-11-03T01:30:40.333Z,8.30
2018-11-03T01:33:08.849Z,8.20
2018-11-03T01:35:37.344Z,8.10
2018-11-03T01:38:05.887Z,8.10
2018-11-03T01:40:34.327Z,8.10
2018-11-03T01:43:02.779Z,8.10
2018-11-03T01:45:31.231Z,8.00
2018-11-03T01:47:59.672Z,8.00
2018-11-03T01:50:28.104Z,7.90
2018-11-03T01:52:56.513Z,7.90
2018-11-03T01:55:24.915Z,8.00
2018-11-03T01:57:53.343Z,7.90
2018-11-03T02:00:21.785Z,8.00
2018-11-03T02:02:50.172Z,7.90
2018-11-03T02:05:18.618Z,7.90
2018-11-03T02:07:47.015Z,7.90
2018-11-03T02:10:15.430Z,7.90
2018-11-03T02:12:43.819Z,7.90
2018-11-03T02:15:12.261Z,7.90
2018-11-03T02:17:40.647Z,7.80
2018-11-03T02:20:09.863Z,7.80
2018-11-03T02:22:38.977Z,7.80
2018-11-03T02:25:07.751Z,7.80
2018-11-03T02:27:36.148Z,7.80
2018-11-03T02:30:04.645Z,7.90
2018-11-03T02:32:33.041Z,7.80
2018-11-03T02:35:01.465Z,7.80
2018-11-03T02:37:29.881Z,7.80
2018-11-03T02:39:58.291Z,7.80
2018-11-03T02:42:26.690Z,7.80
2018-11-03T02:44:55.094Z,7.80
2018-11-03T02:47:23.509Z,7.80
2018-11-03T02:49:51.923Z,7.80
2018-11-03T02:52:20.356Z,7.80
2018-11-03T02:54:48.788Z,7.80
2018-11-03T02:57:17.233Z,7.70
2018-11-03T02:59:45.652Z,7.80
2018-11-03T03:02:14.084Z,7.70
2018-11-03T03:04:42.520Z,7.70
2018-11-03T03:07:11.004Z,7.80
2018-11-03T03:09:39.421Z,7.70
2018-11-03T03:12:07.873Z,7.80
2018-11-03T03:14:36.300Z,7.80
2018-11-03T03:17:04.980Z,7.80
2018-11-03T03:19:33.430Z,7.80
2018-11-03T03:22:01.861Z,7.70
2018-11-03T03:24:30.299Z,7.80
2018-11-03T03:26:58.727Z,7.80
2018-11-03T03:29:27.232Z,7.80
2018-11-03T03:31:55.617Z,7.80
2018-11-03T03:34:24.033Z,7.80
2018-11-03T03:36:52.556Z,7.70
2018-11-03T03:39:20.968Z,7.70
2018-11-03T03:41:49.417Z,7.60
2018-11-03T03:44:17.821Z,7.70
2018-11-03T03:46:46.260Z,7.80
2018-11-03T03:49:14.804Z,7.70
2018-11-03T03:51:43.245Z,7.70
2018-11-03T03:54:11.644Z,7.70
2018-11-03T03:56:40.064Z,7.60
2018-11-03T03:59:08.465Z,7.70
2018-11-03T04:01:36.874Z,7.70
2018-11-03T04:04:05.326Z,7.70
2018-11-03T04:06:33.793Z,7.70
2018-11-03T04:09:02.311Z,7.60
2018-11-03T04:11:30.732Z,7.60
2018-11-03T04:13:59.171Z,7.60
2018-11-03T04:16:27.604Z,7.60
2018-11-03T04:18:56.021Z,7.60
2018-11-03T04:21:28.448Z,7.60
2018-11-03T04:23:56.950Z,7.60
2018-11-03T04:26:26.208Z,7.50
2018-11-03T04:28:54.644Z,7.60
2018-11-03T04:31:23.076Z,7.60
2018-11-03T04:33:51.480Z,7.60
2018-11-03T04:36:19.934Z,7.50
2018-11-03T04:38:48.376Z,7.60
2018-11-03T04:41:16.851Z,7.60
2018-11-03T04:43:45.345Z,7.50
2018-11-03T04:46:13.755Z,7.50
2018-11-03T04:48:42.364Z,7.50
2018-11-03T04:51:10.821Z,7.50
2018-11-03T04:53:39.232Z,7.60
2018-11-03T04:56:07.634Z,7.60
2018-11-03T04:58:36.032Z,7.70
2018-11-03T05:01:04.563Z,7.60
2018-11-03T05:03:33.012Z,7.50
2018-11-03T05:06:01.452Z,7.60
2018-11-03T05:08:29.834Z,7.60
2018-11-03T05:10:58.270Z,7.50
2018-11-03T05:13:26.657Z,7.50
2018-11-03T05:15:55.067Z,7.60
2018-11-03T05:18:23.459Z,7.50
2018-11-03T05:20:51.895Z,7.50
2018-11-03T05:23:20.288Z,7.50
2018-11-03T05:25:48.704Z,7.60
2018-11-03T05:28:17.199Z,7.50
2018-11-03T05:30:45.589Z,7.50
2018-11-03T05:33:14.008Z,7.50
2018-11-03T05:35:42.424Z,7.50
2018-11-03T05:38:10.809Z,7.50
2018-11-03T05:40:39.228Z,7.60
2018-11-03T05:43:07.676Z,7.60
2018-11-03T05:45:36.063Z,7.60
2018-11-03T05:48:04.526Z,7.60
2018-11-03T05:50:32.929Z,7.60
2018-11-03T05:53:01.384Z,7.50
2018-11-03T05:55:29.763Z,7.60
2018-11-03T05:57:58.185Z,7.60
2018-11-03T06:00:27.520Z,7.60
2018-11-03T06:02:56.884Z,7.60
2018-11-03T06:05:25.333Z,7.60
2018-11-03T06:07:53.740Z,7.60
2018-11-03T06:10:22.122Z,7.60
2018-11-03T06:12:50.528Z,7.50
2018-11-03T06:15:19.099Z,7.60
2018-11-03T06:17:47.468Z,7.60
2018-11-03T06:20:15.902Z,7.60
2018-11-03T06:22:44.569Z,7.60
2018-11-03T06:25:12.825Z,7.70
2018-11-03T06:27:41.253Z,7.60
2018-11-03T06:30:10.897Z,7.70
2018-11-03T06:32:39.349Z,7.70
2018-11-03T06:35:08.442Z,7.60
2018-11-03T06:37:36.802Z,7.60
2018-11-03T06:40:06.109Z,7.60
2018-11-03T06:42:34.604Z,7.70
2018-11-03T06:45:03.014Z,7.80
2018-11-03T06:47:31.470Z,7.80
2018-11-03T06:49:59.856Z,7.70
2018-11-03T06:52:28.288Z,7.70
2018-11-03T06:54:56.696Z,7.80
2018-11-03T06:57:25.116Z,7.80
2018-11-03T06:59:53.504Z,7.80
2018-11-03T07:02:21.925Z,7.80
2018-11-03T07:04:50.323Z,7.80
2018-11-03T07:07:18.729Z,7.90
2018-11-03T07:09:47.111Z,7.90
2018-11-03T07:12:15.608Z,7.90
2018-11-03T07:14:43.931Z,7.90
2018-11-03T07:17:12.349Z,7.90
2018-11-03T07:19:40.732Z,7.90
2018-11-03T07:22:09.140Z,7.90
2018-11-03T07:24:37.524Z,7.90
2018-11-03T07:27:05.987Z,7.90
2018-11-03T07:29:34.389Z,7.90
2018-11-03T07:32:02.837Z,8.00
2018-11-03T07:34:31.244Z,8.00
2018-11-03T07:36:59.647Z,8.10
2018-11-03T07:39:28.053Z,8.00
2018-11-03T07:41:56.474Z,8.00
2018-11-03T07:44:24.863Z,8.00
2018-11-03T07:46:53.287Z,8.00
2018-11-03T07:49:21.716Z,8.10
2018-11-03T07:51:50.137Z,8.00
2018-11-03T07:54:18.564Z,8.00
2018-11-03T07:56:46.996Z,8.10
2018-11-03T07:59:15.429Z,8.10
2018-11-03T08:01:43.868Z,8.10
2018-11-03T08:04:12.283Z,8.10
2018-11-03T08:06:40.719Z,8.20
2018-11-03T08:09:10.173Z,8.20
2018-11-03T08:11:38.945Z,8.20
2018-11-03T08:14:07.461Z,8.30
2018-11-03T08:16:35.889Z,8.30
2018-11-03T08:19:04.364Z,8.40
2018-11-03T08:21:32.775Z,8.40
2018-11-03T08:24:01.307Z,8.40
2018-11-03T08:26:29.683Z,8.40
2018-11-03T08:28:58.127Z,8.40
2018-11-03T08:31:26.633Z,8.50
2018-11-03T08:33:55.057Z,8.50
2018-11-03T08:36:23.479Z,8.60
2018-11-03T08:38:52.001Z,8.60
2018-11-03T08:41:20.435Z,8.60
2018-11-03T08:43:48.912Z,8.50
2018-11-03T08:46:17.351Z,8.50
2018-11-03T08:48:45.892Z,8.60
2018-11-03T08:51:14.296Z,8.70
2018-11-03T08:53:42.783Z,8.70
2018-11-03T08:56:11.217Z,8.70
2018-11-03T08:58:39.675Z,8.80
2018-11-03T09:01:08.100Z,8.80
2018-11-03T09:03:36.568Z,8.90
2018-11-03T09:06:05.180Z,8.90
2018-11-03T09:08:33.639Z,8.90
2018-11-03T09:11:02.141Z,8.90
2018-11-03T09:13:30.588Z,9.00
2018-11-03T09:15:59.030Z,9.10
2018-11-03T09:18:27.475Z,9.00
2018-11-03T09:20:55.925Z,9.10
2018-11-03T09:23:24.369Z,9.20
2018-11-03T09:25:52.817Z,9.30
2018-11-03T09:28:21.249Z,9.30
2018-11-03T09:30:49.672Z,9.30
2018-11-03T09:33:18.111Z,9.30
2018-11-03T09:35:46.540Z,9.40
2018-11-03T09:38:14.988Z,9.40
2018-11-03T09:40:43.477Z,9.40
2018-11-03T09:43:12.002Z,9.50
2018-11-03T09:45:40.359Z,9.50
2018-11-03T09:48:08.813Z,9.50
2018-11-03T09:50:37.327Z,9.50
2018-11-03T09:53:05.761Z,9.40
2018-11-03T09:55:34.256Z,9.60
2018-11-03T09:58:02.737Z,9.60
2018-11-03T10:00:31.193Z,9.50
2018-11-03T10:02:59.644Z,9.50
2018-11-03T10:05:28.161Z,9.40
2018-11-03T10:07:57.895Z,9.50
2018-11-03T10:10:26.344Z,9.60
2018-11-03T10:12:54.769Z,9.70
2018-11-03T10:15:23.251Z,9.70
2018-11-03T10:17:51.666Z,9.70
2018-11-03T10:20:20.106Z,9.70
2018-11-03T10:22:48.552Z,9.70
2018-11-03T10:25:18.356Z,9.80
2018-11-03T10:27:47.130Z,9.80
2018-11-03T10:30:16.562Z,9.70
2018-11-03T10:32:45.252Z,9.60
2018-11-03T10:35:14.184Z,9.80
2018-11-03T10:37:42.830Z,9.80
2018-11-03T10:40:13.187Z,9.90
2018-11-03T10:42:42.077Z,10.00
2018-11-03T10:45:11.791Z,9.90
2018-11-03T10:47:40.751Z,10.00
2018-11-03T10:50:11.912Z,10.10
2018-11-03T10:52:41.300Z,10.10
2018-11-03T10:55:11.036Z,10.20
2018-11-03T10:57:39.480Z,10.30
2018-11-03T11:00:17.559Z,10.20
2018-11-03T11:02:51.395Z,10.30
2018-11-03T11:05:25.259Z,10.20
2018-11-03T11:07:58.940Z,10.20
2018-11-03T11:10:32.720Z,10.20
2018-11-03T11:13:04.865Z,10.20
2018-11-03T11:15:33.305Z,10.40
2018-11-03T11:18:01.821Z,10.50
2018-11-03T11:20:30.303Z,10.60
2018-11-03T11:22:58.740Z,10.60
2018-11-03T11:25:27.250Z,10.70
2018-11-03T11:27:55.632Z,10.80
2018-11-03T11:30:24.162Z,10.80
2018-11-03T11:32:52.713Z,10.70
2018-11-03T11:35:21.104Z,10.90
2018-11-03T11:37:49.553Z,11.00
2018-11-03T11:40:18.055Z,11.10
2018-11-03T11:42:46.532Z,11.00
2018-11-03T11:45:14.954Z,11.00
2018-11-03T11:47:43.380Z,11.10
2018-11-03T11:50:11.851Z,11.10
2018-11-03T11:52:40.309Z,11.20
2018-11-03T11:55:08.855Z,11.20
2018-11-03T11:57:37.208Z,11.20
2018-11-03T12:00:05.828Z,11.30
2018-11-03T12:02:34.418Z,11.30
2018-11-03T12:05:02.739Z,11.20
2018-11-03T12:07:31.536Z,11.20
2018-11-03T12:10:00.051Z,11.20
2018-11-03T12:12:28.420Z,11.20
2018-11-03T12:14:56.875Z,11.10
2018-11-03T12:17:25.288Z,11.20
2018-11-03T12:19:53.743Z,11.10
2018-11-03T12:22:22.194Z,11.30
2018-11-03T12:24:50.680Z,11.20
2018-11-03T12:27:19.117Z,11.40
2018-11-03T12:29:47.644Z,11.50
2018-11-03T12:32:16.107Z,11.70
2018-11-03T12:34:44.548Z,11.60
2018-11-03T12:37:12.981Z,11.60
2018-11-03T12:39:41.423Z,11.60
2018-11-03T12:42:09.867Z,11.70
2018-11-03T12:44:38.494Z,11.50
2018-11-03T12:47:06.872Z,11.60
2018-11-03T12:49:35.333Z,11.70
2018-11-03T12:52:03.795Z,11.70
2018-11-03T12:54:32.208Z,11.60
2018-11-03T12:57:00.656Z,11.70
2018-11-03T12:59:29.076Z,11.60
2018-11-03T13:01:57.511Z,11.70
2018-11-03T13:04:25.932Z,11.70
2018-11-03T13:06:54.440Z,11.70
2018-11-03T13:09:22.868Z,11.80
2018-11-03T13:11:51.316Z,11.80
2018-11-03T13:14:19.727Z,11.60
2018-11-03T13:16:48.213Z,11.80
2018-11-03T13:19:16.636Z,11.80
2018-11-03T13:21:45.070Z,11.80
2018-11-03T13:24:13.486Z,11.90
2018-11-03T13:26:41.935Z,11.90
2018-11-03T13:29:10.339Z,11.90
2018-11-03T13:31:38.813Z,12.00
2018-11-03T13:34:07.266Z,11.90
2018-11-03T13:36:35.705Z,12.00
2018-11-03T13:39:05.404Z,12.00
2018-11-03T13:41:33.836Z,12.00
2018-11-03T13:44:02.291Z,12.00
2018-11-03T13:46:30.728Z,12.00
2018-11-03T13:48:59.157Z,12.00
2018-11-03T13:51:27.615Z,12.00
2018-11-03T13:53:56.047Z,12.10
2018-11-03T13:56:24.492Z,12.10
2018-11-03T13:58:53.681Z,12.10
2018-11-03T14:01:22.157Z,12.10
2018-11-03T14:03:50.590Z,12.10
2018-11-03T14:06:19.053Z,12.10
2018-11-03T14:08:47.491Z,12.00
2018-11-03T14:11:15.997Z,11.90
2018-11-03T14:13:44.419Z,11.80
2018-11-03T14:16:12.976Z,12.00
2018-11-03T14:18:41.940Z,11.90
2018-11-03T14:21:10.493Z,11.90
2018-11-03T14:23:39.043Z,11.90
2018-11-03T14:26:07.447Z,11.80
2018-11-03T14:28:35.946Z,11.80
2018-11-03T14:31:04.488Z,11.90
2018-11-03T14:33:32.936Z,11.90
2018-11-03T14:36:01.432Z,12.00
2018-11-03T14:38:29.913Z,11.90
2018-11-03T14:40:58.362Z,11.90
2018-11-03T14:43:26.800Z,11.90
2018-11-03T14:45:55.298Z,11.80
2018-11-03T14:48:23.735Z,11.80
2018-11-03T14:50:52.287Z,11.80
2018-11-03T14:53:20.755Z,11.80
2018-11-03T14:55:49.147Z,11.80
2018-11-03T14:58:17.586Z,11.70
2018-11-03T15:00:46.031Z,11.70
2018-11-03T15:03:14.556Z,11.70
2018-11-03T15:05:42.973Z,11.70
2018-11-03T15:08:11.384Z,11.70
2018-11-03T15:10:39.918Z,11.70
2018-11-03T15:13:08.336Z,11.60
2018-11-03T15:15:37.609Z,11.60
2018-11-03T15:18:06.096Z,11.60
2018-11-03T15:20:34.528Z,11.50
2018-11-03T15:23:02.948Z,11.60
2018-11-03T15:25:31.408Z,11.50
2018-11-03T15:27:59.935Z,11.50
2018-11-03T15:30:28.339Z,11.40
2018-11-03T15:32:56.751Z,11.40
2018-11-03T15:35:25.164Z,11.30
2018-11-03T15:37:53.639Z,11.30
2018-11-03T15:40:22.045Z,11.30
2018-11-03T15:42:50.481Z,11.40
2018-11-03T15:45:18.967Z,11.30
2018-11-03T15:47:47.955Z,11.20
2018-11-03T15:50:16.958Z,11.30
2018-11-03T15:52:45.798Z,11.30
2018-11-03T15:55:14.304Z,11.20
2018-11-03T15:57:42.952Z,11.20
2018-11-03T16:00:15.112Z,11.20
2018-11-03T16:02:43.632Z,11.20
2018-11-03T16:05:12.081Z,11.10
2018-11-03T16:07:40.645Z,11.10
2018-11-03T16:10:10.124Z,11.20
2018-11-03T16:12:38.783Z,11.10
2018-11-03T16:15:08.757Z,11.00
2018-11-03T16:17:37.252Z,11.00
2018-11-03T16:20:06.923Z,11.10
2018-11-03T16:22:35.476Z,11.10
2018-11-03T16:25:03.941Z,11.00
2018-11-03T16:27:32.377Z,11.00
2018-11-03T16:30:00.844Z,11.00
2018-11-03T16:32:29.435Z,11.00
2018-11-03T16:34:57.966Z,11.10
2018-11-03T16:37:26.525Z,11.00
2018-11-03T16:39:54.992Z,11.00
2018-11-03T16:42:23.472Z,11.00
2018-11-03T16:44:51.899Z,11.00
2018-11-03T16:47:20.391Z,10.90
2018-11-03T16:49:48.895Z,11.00
2018-11-03T16:52:17.381Z,11.00
2018-11-03T16:54:45.768Z,11.00
2018-11-03T16:57:14.637Z,11.00
2018-11-03T16:59:43.508Z,11.00
2018-11-03T17:02:12.030Z,10.90
2018-11-03T17:04:40.428Z,11.00
2018-11-03T17:07:08.876Z,11.00
2018-11-03T17:09:37.300Z,11.00
2018-11-03T17:12:05.997Z,11.00
2018-11-03T17:14:34.424Z,11.00
2018-11-03T17:17:02.949Z,11.10
2018-11-03T17:19:31.356Z,11.00
2018-11-03T17:21:59.809Z,11.00
2018-11-03T17:24:28.225Z,10.90
2018-11-03T17:26:56.640Z,10.90
2018-11-03T17:29:25.048Z,10.90
2018-11-03T17:31:53.472Z,10.90
2018-11-03T17:34:21.855Z,10.90
2018-11-03T17:36:50.269Z,10.90
2018-11-03T17:39:18.656Z,10.90
2018-11-03T17:41:47.140Z,10.90
2018-11-03T17:44:15.562Z,11.00
2018-11-03T17:46:43.985Z,10.90
2018-11-03T17:49:12.383Z,10.90
2018-11-03T17:51:40.860Z,10.90
2018-11-03T17:54:09.268Z,10.90
2018-11-03T17:56:37.689Z,10.90
2018-11-03T17:59:06.132Z,10.90
2018-11-03T18:01:34.633Z,10.90
2018-11-03T18:04:02.968Z,10.90
2018-11-03T18:06:31.412Z,10.90
2018-11-03T18:08:59.846Z,10.90
2018-11-03T18:11:28.259Z,10.90
2018-11-03T18:13:56.685Z,10.90
2018-11-03T18:16:25.132Z,10.90
2018-11-03T18:18:53.581Z,10.90
2018-11-03T18:21:22.007Z,10.90
2018-11-03T18:23:50.452Z,10.90
2018-11-03T18:26:18.960Z,10.90
2018-11-03T18:28:47.333Z,10.90
2018-11-03T18:31:15.757Z,11.00
2018-11-03T18:33:44.169Z,11.00
2018-11-03T18:36:12.649Z,11.00
2018-11-03T18:38:41.087Z,11.00
2018-11-03T18:41:09.533Z,11.00
2018-11-03T18:43:37.997Z,11.00
2018-11-03T18:46:06.441Z,10.90
2018-11-03T18:48:34.868Z,10.90
2018-11-03T18:51:03.293Z,10.90
2018-11-03T18:53:31.732Z,10.90
2018-11-03T18:56:00.164Z,10.90
2018-11-03T18:58:28.604Z,10.90
2018-11-03T19:00:57.372Z,10.90
2018-11-03T19:03:25.776Z,10.90
2018-11-03T19:05:54.200Z,10.90
2018-11-03T19:08:22.804Z,10.90
2018-11-03T19:10:51.218Z,10.90
2018-11-03T19:13:19.652Z,10.90
2018-11-03T19:15:48.102Z,11.00
2018-11-03T19:18:16.517Z,11.00
2018-11-03T19:20:45.144Z,11.00
2018-11-03T19:23:13.657Z,11.00
2018-11-03T19:25:42.076Z,10.90
2018-11-03T19:28:10.522Z,10.90
2018-11-03T19:30:38.924Z,11.00
2018-11-03T19:33:07.447Z,11.00
2018-11-03T19:35:35.807Z,11.00
2018-11-03T19:38:04.384Z,11.00
2018-11-03T19:40:32.794Z,11.00
2018-11-03T19:43:01.228Z,11.00
2018-11-03T19:45:29.636Z,11.00
2018-11-03T19:47:58.109Z,11.00
2018-11-03T19:50:26.504Z,10.90
2018-11-03T19:52:54.967Z,10.90
2018-11-03T19:55:23.390Z,10.90
2018-11-03T19:57:51.808Z,10.90
2018-11-03T20:00:20.409Z,10.90
2018-11-03T20:02:48.880Z,10.90
2018-11-03T20:05:17.308Z,10.90
2018-11-03T20:07:45.737Z,10.90
2018-11-03T20:10:14.306Z,10.90
2018-11-03T20:12:42.972Z,10.90
2018-11-03T20:15:12.372Z,10.90
2018-11-03T20:17:40.980Z,10.90
2018-11-03T20:20:10.913Z,10.90
2018-11-03T20:22:39.332Z,11.00
2018-11-03T20:25:09.001Z,11.00
2018-11-03T20:27:37.463Z,11.00
2018-11-03T20:30:09.257Z,11.00
2018-11-03T20:32:37.696Z,11.00
2018-11-03T20:35:06.560Z,11.00
2018-11-03T20:37:34.984Z,11.00
2018-11-03T20:40:03.508Z,11.00
2018-11-03T20:42:31.979Z,11.00
2018-11-03T20:45:00.505Z,10.90
2018-11-03T20:47:28.923Z,10.90
2018-11-03T20:49:57.356Z,11.00
2018-11-03T20:52:25.800Z,10.90
2018-11-03T20:54:54.240Z,10.90
2018-11-03T20:57:22.665Z,10.90
2018-11-03T20:59:51.112Z,10.90
2018-11-03T21:02:19.575Z,10.90
2018-11-03T21:04:48.012Z,11.00
2018-11-03T21:07:16.512Z,10.90
2018-11-03T21:09:44.937Z,11.00
2018-11-03T21:12:13.347Z,11.00
2018-11-03T21:14:41.786Z,11.00
2018-11-03T21:17:10.204Z,11.00
2018-11-03T21:19:38.654Z,11.00
2018-11-03T21:22:09.068Z,11.00
2018-11-03T21:24:37.611Z,11.00
2018-11-03T21:27:07.159Z,11.00
2018-11-03T21:29:35.592Z,11.00
2018-11-03T21:32:04.102Z,11.00
2018-11-03T21:34:32.548Z,11.00
2018-11-03T21:37:00.981Z,11.00
2018-11-03T21:39:29.416Z,11.00
2018-11-03T21:41:57.836Z,11.00
2018-11-03T21:44:26.325Z,11.00
2018-11-03T21:46:55.008Z,11.00
2018-11-03T21:49:23.312Z,11.00
2018-11-03T21:51:51.902Z,11.00
2018-11-03T21:54:20.464Z,10.90
2018-11-03T21:56:48.877Z,10.90
2018-11-03T21:59:17.292Z,10.90
2018-11-03T22:01:45.715Z,10.90
2018-11-03T22:04:14.125Z,11.00
2018-11-03T22:06:42.516Z,10.90
2018-11-03T22:09:12.162Z,11.00
2018-11-03T22:11:40.616Z,11.00
2018-11-03T22:14:09.056Z,10.90
2018-11-03T22:16:37.464Z,10.90
2018-11-03T22:19:06.139Z,10.90
2018-11-03T22:21:34.575Z,10.90
2018-11-03T22:24:03.098Z,10.90
2018-11-03T22:26:31.844Z,10.90
2018-11-03T22:29:00.251Z,10.90
2018-11-03T22:31:29.028Z,10.90
2018-11-03T22:33:57.471Z,10.90
2018-11-03T22:36:25.924Z,10.90
2018-11-03T22:38:54.340Z,10.90
2018-11-03T22:41:22.766Z,10.90
2018-11-03T22:43:51.176Z,10.90
2018-11-03T22:46:19.644Z,10.90
2018-11-03T22:48:48.049Z,10.90
2018-11-03T22:51:16.510Z,10.90
2018-11-03T22:53:46.181Z,10.90
2018-11-03T22:56:14.872Z,11.00
2018-11-03T22:58:43.349Z,10.90
2018-11-03T23:01:11.868Z,11.00
2018-11-03T23:03:40.608Z,10.90
2018-11-03T23:06:09.139Z,10.90
2018-11-03T23:08:37.747Z,10.90
2018-11-03T23:11:06.297Z,10.80
2018-11-03T23:13:34.829Z,10.80
2018-11-03T23:16:03.285Z,10.90
2018-11-03T23:18:31.776Z,11.00
2018-11-03T23:21:00.320Z,11.00
2018-11-03T23:23:28.858Z,10.90
2018-11-03T23:25:57.492Z,10.90
2018-11-03T23:28:26.029Z,10.90
2018-11-03T23:30:54.664Z,10.90
2018-11-03T23:33:23.213Z,10.90
2018-11-03T23:35:51.779Z,10.90
2018-11-03T23:38:20.239Z,10.90
2018-11-03T23:40:48.679Z,10.90
2018-11-03T23:43:17.106Z,10.90
2018-11-03T23:45:45.544Z,10.90
2018-11-03T23:48:13.972Z,10.80
2018-11-03T23:50:42.397Z,10.80
2018-11-03T23:53:10.881Z,10.80
2018-11-03T23:55:39.285Z,10.90
2018-11-03T23:58:07.705Z,10.90
